createdAt,value
2023-02-18T00:02:30.575Z,88.32
2023-02-18T00:05:23.093Z,83.36
2023-02-18T00:08:05.861Z,87.67
2023-02-18T00:10:47.378Z,88.01
2023-02-18T00:13:27.864Z,92.72
2023-02-18T00:16:10.042Z,90.67
2023-02-18T00:18:51.880Z,87.92
2023-02-18T00:21:37.464Z,91.44
2023-02-18T00:24:26.617Z,91.57
2023-02-18T00:27:12.760Z,89.19
2023-02-18T00:29:55.974Z,89.69
2023-02-18T00:32:42.880Z,89.12
2023-02-18T00:35:23.256Z,87.95
2023-02-18T00:38:06.902Z,90.40
2023-02-18T00:40:55.399Z,89.97
2023-02-18T00:43:37.107Z,92.41
2023-02-18T00:46:20.307Z,93.17
2023-02-18T00:48:51.369Z,92.03
2023-02-18T00:51:21.794Z,92.65
2023-02-18T00:53:51.704Z,95.56
2023-02-18T00:56:20.913Z,95.35
2023-02-18T00:58:50.707Z,94.89
2023-02-18T01:01:20.411Z,94.88
2023-02-18T01:03:49.389Z,95.95
2023-02-18T01:06:18.066Z,94.48
2023-02-18T01:08:46.733Z,96.00
2023-02-18T01:11:16.963Z,96.10
2023-02-18T01:13:45.367Z,97.33
2023-02-18T01:16:13.901Z,96.57
2023-02-18T01:18:42.352Z,98.08
2023-02-18T01:21:11.725Z,99.34
2023-02-18T01:23:41.990Z,100.00
2023-02-18T01:26:12.034Z,100.00
2023-02-18T01:28:42.355Z,98.49
2023-02-18T01:31:14.028Z,97.72
2023-02-18T01:33:42.792Z,98.70
2023-02-18T01:36:14.176Z,98.30
2023-02-18T01:38:42.502Z,99.27
2023-02-18T01:41:12.350Z,97.38
2023-02-18T01:43:42.333Z,98.63
2023-02-18T01:46:22.061Z,98.36
2023-02-18T01:48:55.254Z,99.46
2023-02-18T01:51:27.226Z,100.00
2023-02-18T01:53:57.722Z,96.64
2023-02-18T01:56:30.655Z,97.74
2023-02-18T01:59:03.171Z,95.17
2023-02-18T02:01:33.613Z,94.01
2023-02-18T02:04:03.321Z,93.25
2023-02-18T02:06:32.934Z,90.38
2023-02-18T02:09:04.843Z,91.40
2023-02-18T02:12:08.840Z,90.78
2023-02-18T02:14:52.064Z,89.38
2023-02-18T02:17:31.355Z,91.78
2023-02-18T02:20:24.127Z,87.33
2023-02-18T02:23:25.169Z,86.42
2023-02-18T02:26:36.182Z,87.63
2023-02-18T02:29:58.232Z,85.59
2023-02-18T02:32:56.109Z,90.86
2023-02-18T02:35:27.720Z,91.44
2023-02-18T02:38:04.385Z,89.37
2023-02-18T02:40:39.874Z,90.38
2023-02-18T02:43:16.798Z,89.42
2023-02-18T02:45:55.971Z,86.93
2023-02-18T02:48:30.964Z,88.28
2023-02-18T02:51:09.091Z,91.35
2023-02-18T02:53:41.132Z,91.72
2023-02-18T02:56:16.004Z,92.56
2023-02-18T02:58:48.045Z,92.30
2023-02-18T03:01:28.612Z,88.75
2023-02-18T03:04:15.117Z,94.25
2023-02-18T03:07:03.312Z,94.97
2023-02-18T03:09:48.251Z,96.84
2023-02-18T03:12:23.777Z,95.14
2023-02-18T03:15:02.531Z,96.02
2023-02-18T03:17:36.162Z,96.49
2023-02-18T03:20:10.929Z,95.27
2023-02-18T03:22:45.461Z,91.88
2023-02-18T03:25:15.735Z,93.83
2023-02-18T03:27:50.024Z,94.23
2023-02-18T03:30:24.292Z,91.04
2023-02-18T03:32:56.950Z,93.97
2023-02-18T03:35:26.980Z,94.37
2023-02-18T03:38:02.917Z,94.27
2023-02-18T03:40:32.715Z,96.55
2023-02-18T03:43:03.154Z,95.46
2023-02-18T03:45:31.615Z,96.52
2023-02-18T03:47:59.961Z,96.00
2023-02-18T03:50:28.479Z,95.63
2023-02-18T03:52:58.241Z,97.00
2023-02-18T03:55:26.633Z,97.08
2023-02-18T03:57:55.170Z,96.62
2023-02-18T04:00:23.699Z,96.91
2023-02-18T04:02:52.107Z,96.06
2023-02-18T04:05:20.464Z,95.94
2023-02-18T04:07:48.785Z,96.27
2023-02-18T04:10:18.734Z,95.32
2023-02-18T04:12:47.774Z,94.67
2023-02-18T04:15:16.158Z,93.26
2023-02-18T04:17:44.603Z,94.20
2023-02-18T04:20:13.728Z,94.42
2023-02-18T04:22:41.999Z,94.05
2023-02-18T04:25:10.152Z,92.65
2023-02-18T04:27:40.083Z,95.93
2023-02-18T04:30:10.007Z,94.81
2023-02-18T04:32:38.517Z,95.17
2023-02-18T04:35:07.740Z,95.42
2023-02-18T04:37:35.824Z,94.30
2023-02-18T04:40:04.481Z,94.42
2023-02-18T04:42:32.798Z,94.74
2023-02-18T04:45:02.672Z,94.47
2023-02-18T04:47:31.427Z,94.84
2023-02-18T04:50:00.232Z,95.11
2023-02-18T04:52:28.501Z,95.85
2023-02-18T04:54:56.786Z,94.30
2023-02-18T04:57:25.090Z,94.66
2023-02-18T04:59:53.413Z,94.81
2023-02-18T05:02:23.154Z,93.93
2023-02-18T05:04:51.414Z,94.92
2023-02-18T05:07:19.825Z,95.49
2023-02-18T05:09:48.452Z,94.93
2023-02-18T05:12:16.801Z,94.60
2023-02-18T05:14:45.969Z,94.48
2023-02-18T05:17:14.327Z,94.74
2023-02-18T05:19:44.334Z,95.69
2023-02-18T05:22:12.912Z,95.88
2023-02-18T05:24:41.438Z,95.87
2023-02-18T05:27:10.064Z,95.99
2023-02-18T05:29:38.462Z,95.14
2023-02-18T05:32:07.648Z,96.46
2023-02-18T05:34:36.549Z,96.27
2023-02-18T05:37:06.369Z,97.09
2023-02-18T05:39:34.681Z,96.37
2023-02-18T05:42:03.091Z,95.83
2023-02-18T05:44:31.519Z,96.41
2023-02-18T05:47:00.638Z,96.48
2023-02-18T05:49:29.429Z,95.81
2023-02-18T05:51:58.304Z,95.38
2023-02-18T05:54:29.503Z,95.73
2023-02-18T05:56:57.894Z,95.92
2023-02-18T05:59:26.405Z,94.54
2023-02-18T06:01:55.722Z,94.79
2023-02-18T06:04:24.151Z,95.14
2023-02-18T06:06:52.469Z,95.52
2023-02-18T06:09:24.059Z,94.51
2023-02-18T06:11:54.538Z,95.22
2023-02-18T06:14:22.864Z,94.95
2023-02-18T06:16:51.754Z,95.31
2023-02-18T06:19:20.035Z,93.65
2023-02-18T06:21:48.370Z,94.05
2023-02-18T06:24:16.840Z,94.88
2023-02-18T06:26:45.752Z,93.84
2023-02-18T06:29:15.662Z,95.78
2023-02-18T06:31:44.373Z,93.84
2023-02-18T06:34:13.184Z,93.34
2023-02-18T06:36:44.127Z,94.16
2023-02-18T06:39:12.698Z,93.18
2023-02-18T06:41:41.717Z,94.32
2023-02-18T06:44:11.409Z,93.32
2023-02-18T06:46:41.335Z,94.06
2023-02-18T06:49:09.577Z,92.85
2023-02-18T06:51:37.919Z,93.74
2023-02-18T06:54:07.004Z,94.15
2023-02-18T06:56:35.404Z,93.45
2023-02-18T06:59:05.262Z,92.54
2023-02-18T07:01:34.494Z,92.71
2023-02-18T07:04:04.557Z,92.91
2023-02-18T07:06:32.944Z,91.28
2023-02-18T07:09:01.553Z,91.22
2023-02-18T07:11:29.897Z,91.11
2023-02-18T07:13:58.201Z,89.49
2023-02-18T07:16:26.619Z,90.69
2023-02-18T07:18:55.167Z,90.73
2023-02-18T07:21:25.164Z,90.90
2023-02-18T07:23:53.865Z,89.41
2023-02-18T07:26:23.517Z,89.16
2023-02-18T07:28:51.819Z,88.62
2023-02-18T07:31:21.090Z,87.85
2023-02-18T07:33:50.728Z,88.94
2023-02-18T07:36:19.124Z,89.27
2023-02-18T07:38:49.025Z,89.50
2023-02-18T07:41:20.146Z,89.09
2023-02-18T07:43:48.768Z,88.00
2023-02-18T07:46:17.989Z,87.58
2023-02-18T07:48:46.285Z,88.35
2023-02-18T07:51:14.764Z,87.95
2023-02-18T07:53:43.313Z,88.34
2023-02-18T07:56:13.456Z,90.01
2023-02-18T07:58:41.804Z,89.48
2023-02-18T08:01:12.811Z,87.95
2023-02-18T08:03:41.244Z,86.53
2023-02-18T08:06:10.504Z,89.53
2023-02-18T08:08:38.828Z,88.36
2023-02-18T08:11:18.646Z,87.14
2023-02-18T08:13:49.404Z,88.91
2023-02-18T08:16:18.492Z,88.21
2023-02-18T08:18:48.001Z,87.30
2023-02-18T08:21:16.781Z,87.06
2023-02-18T08:23:45.917Z,87.39
2023-02-18T08:26:15.201Z,88.57
2023-02-18T08:28:45.176Z,87.72
2023-02-18T08:31:21.289Z,86.33
2023-02-18T08:33:50.526Z,87.12
2023-02-18T08:36:19.131Z,86.35
2023-02-18T08:38:48.502Z,86.36
2023-02-18T08:41:19.159Z,86.47
2023-02-18T08:43:48.284Z,84.94
2023-02-18T08:46:33.322Z,83.79
2023-02-18T08:49:04.614Z,84.23
2023-02-18T08:51:33.729Z,84.14
2023-02-18T08:54:02.883Z,85.34
2023-02-18T08:56:31.881Z,85.57
2023-02-18T08:59:00.700Z,82.62
2023-02-18T09:01:30.767Z,82.67
2023-02-18T09:03:59.285Z,77.63
2023-02-18T09:06:29.442Z,79.19
2023-02-18T09:08:58.021Z,82.54
2023-02-18T09:11:26.538Z,82.63
2023-02-18T09:13:55.025Z,82.86
2023-02-18T09:16:26.163Z,81.05
2023-02-18T09:18:56.641Z,79.36
2023-02-18T09:21:26.123Z,80.99
2023-02-18T09:23:54.974Z,80.42
2023-02-18T09:28:23.773Z,79.45
2023-02-18T09:30:52.804Z,78.10
2023-02-18T09:33:21.567Z,72.04
2023-02-18T09:35:50.132Z,76.71
2023-02-18T09:38:19.400Z,74.47
2023-02-18T09:40:51.739Z,74.58
2023-02-18T09:43:30.362Z,75.20
2023-02-18T09:46:00.860Z,76.25
2023-02-18T09:48:38.859Z,81.62
2023-02-18T09:51:07.888Z,78.98
2023-02-18T09:53:36.460Z,73.27
2023-02-18T09:56:05.468Z,65.57
2023-02-18T09:58:39.026Z,59.75
2023-02-18T10:01:13.402Z,66.23
2023-02-18T10:03:43.988Z,71.18
2023-02-18T10:06:18.223Z,72.18
2023-02-18T10:08:49.230Z,74.36
2023-02-18T10:11:23.464Z,73.84
2023-02-18T10:13:55.318Z,71.48
2023-02-18T10:16:26.278Z,72.41
2023-02-18T10:18:58.453Z,71.25
2023-02-18T10:21:28.961Z,73.52
2023-02-18T10:24:02.326Z,72.68
2023-02-18T10:26:32.671Z,78.87
2023-02-18T10:29:03.208Z,78.82
2023-02-18T10:31:42.310Z,76.26
2023-02-18T10:34:20.371Z,79.41
2023-02-18T10:36:56.134Z,76.38
2023-02-18T10:39:42.872Z,74.34
2023-02-18T10:42:22.266Z,71.20
2023-02-18T10:45:05.096Z,72.72
2023-02-18T10:47:40.943Z,71.05
2023-02-18T10:50:30.544Z,70.25
2023-02-18T10:53:03.605Z,72.80
2023-02-18T10:55:40.662Z,69.71
2023-02-18T10:58:28.764Z,67.16
2023-02-18T11:00:59.397Z,72.36
2023-02-18T11:03:39.876Z,73.64
2023-02-18T11:06:18.712Z,72.80
2023-02-18T11:08:49.081Z,75.65
2023-02-18T11:11:22.106Z,75.73
2023-02-18T11:13:55.485Z,78.30
2023-02-18T11:16:37.760Z,77.00
2023-02-18T11:19:06.545Z,78.68
2023-02-18T11:21:37.816Z,77.43
2023-02-18T11:24:11.121Z,74.70
2023-02-18T11:26:41.948Z,77.76
2023-02-18T11:29:20.849Z,77.78
2023-02-18T11:31:52.993Z,77.04
2023-02-18T11:34:24.345Z,77.47
2023-02-18T11:36:54.781Z,75.44
2023-02-18T11:39:26.818Z,76.41
2023-02-18T11:41:57.982Z,76.24
2023-02-18T11:44:31.190Z,76.41
2023-02-18T11:47:03.875Z,76.98
2023-02-18T11:49:34.969Z,77.81
2023-02-18T11:52:20.897Z,74.92
2023-02-18T11:55:02.955Z,73.05
2023-02-18T11:57:32.926Z,78.76
2023-02-18T12:00:02.224Z,78.85
2023-02-18T12:02:41.818Z,78.96
2023-02-18T12:05:16.099Z,77.12
2023-02-18T12:07:47.197Z,77.85
2023-02-18T12:10:17.383Z,77.61
2023-02-18T12:12:49.714Z,77.17
2023-02-18T12:15:23.760Z,77.16
2023-02-18T12:18:22.136Z,75.16
2023-02-18T12:21:16.787Z,75.62
2023-02-18T12:23:58.098Z,77.96
2023-02-18T12:26:30.318Z,79.29
2023-02-18T12:29:29.301Z,76.07
2023-02-18T12:32:26.564Z,77.55
2023-02-18T12:35:09.138Z,79.39
2023-02-18T12:38:04.296Z,76.96
2023-02-18T12:40:54.438Z,77.95
2023-02-18T12:43:35.075Z,79.28
2023-02-18T12:46:21.043Z,78.20
2023-02-18T12:49:00.834Z,79.67
2023-02-18T12:51:40.556Z,79.28
2023-02-18T12:54:31.242Z,79.49
2023-02-18T12:57:10.390Z,80.89
2023-02-18T13:00:00.233Z,80.70
2023-02-18T13:02:55.431Z,81.54
2023-02-18T13:05:34.215Z,81.65
2023-02-18T13:08:20.586Z,81.44
2023-02-18T13:11:10.859Z,80.25
2023-02-18T13:13:44.460Z,82.51
2023-02-18T13:16:16.372Z,81.62
2023-02-18T13:18:54.854Z,80.98
2023-02-18T13:21:24.499Z,80.30
2023-02-18T13:23:58.798Z,80.32
2023-02-18T13:26:29.168Z,79.27
2023-02-18T13:29:18.195Z,80.11
2023-02-18T13:32:01.238Z,77.92
2023-02-18T13:34:35.478Z,80.35
2023-02-18T13:37:13.181Z,79.05
2023-02-18T13:39:51.436Z,76.56
2023-02-18T13:42:37.429Z,78.44
2023-02-18T13:45:29.381Z,76.60
2023-02-18T13:47:59.085Z,81.21
2023-02-18T13:50:34.150Z,80.39
2023-02-18T13:53:23.712Z,79.22
2023-02-18T13:55:58.376Z,81.90
2023-02-18T13:58:33.070Z,81.04
2023-02-18T14:01:04.635Z,82.12
2023-02-18T14:03:38.299Z,81.66
2023-02-18T14:06:18.503Z,82.43
2023-02-18T14:08:48.052Z,83.34
2023-02-18T14:11:35.898Z,80.75
2023-02-18T14:14:45.077Z,81.69
2023-02-18T14:17:36.448Z,81.07
2023-02-18T14:20:47.006Z,78.76
2023-02-18T14:24:07.257Z,80.73
2023-02-18T14:26:40.867Z,83.74
2023-02-18T14:29:17.185Z,83.41
2023-02-18T14:31:54.098Z,83.70
2023-02-18T14:34:47.483Z,83.17
2023-02-18T14:37:51.138Z,83.73
2023-02-18T14:40:29.835Z,82.57
2023-02-18T14:43:08.702Z,81.60
2023-02-18T14:46:15.342Z,80.23
2023-02-18T14:49:02.320Z,80.07
2023-02-18T14:51:33.388Z,80.17
2023-02-18T14:54:07.610Z,79.95
2023-02-18T14:56:41.012Z,79.24
2023-02-18T14:59:14.196Z,81.46
2023-02-18T15:01:42.701Z,83.18
2023-02-18T15:04:15.973Z,82.12
2023-02-18T15:06:44.447Z,82.20
2023-02-18T15:09:19.416Z,82.68
2023-02-18T15:11:52.360Z,82.88
2023-02-18T15:14:28.754Z,83.12
2023-02-18T15:16:58.717Z,82.53
2023-02-18T15:19:30.527Z,83.31
2023-02-18T15:21:59.671Z,84.17
2023-02-18T15:24:32.867Z,83.81
2023-02-18T15:27:05.010Z,84.72
2023-02-18T15:29:36.553Z,85.45
2023-02-18T15:32:16.925Z,85.07
2023-02-18T15:34:48.179Z,86.52
2023-02-18T15:37:17.049Z,86.82
2023-02-18T15:39:47.754Z,87.64
2023-02-18T15:42:27.751Z,87.59
2023-02-18T15:45:03.864Z,90.19
2023-02-18T15:47:33.662Z,94.31
2023-02-18T15:50:04.247Z,96.87
2023-02-18T15:52:39.722Z,100.00
2023-02-18T15:55:15.022Z,100.00
2023-02-18T15:57:44.296Z,100.00
2023-02-18T16:00:23.047Z,100.00
2023-02-18T16:02:55.327Z,100.00
2023-02-18T16:05:29.853Z,100.00
2023-02-18T16:08:01.495Z,100.00
2023-02-18T16:10:54.541Z,100.00
2023-02-18T16:13:26.691Z,100.00
2023-02-18T16:15:57.422Z,100.00
2023-02-18T16:18:29.117Z,100.00
2023-02-18T16:21:01.693Z,100.00
2023-02-18T16:23:37.682Z,100.00
2023-02-18T16:26:20.290Z,100.00
2023-02-18T16:28:51.461Z,100.00
2023-02-18T16:31:22.328Z,100.00
2023-02-18T16:33:51.492Z,100.00
2023-02-18T16:36:27.500Z,100.00
2023-02-18T16:38:56.217Z,100.00
2023-02-18T16:41:25.071Z,100.00
2023-02-18T16:43:54.115Z,100.00
2023-02-18T16:46:25.164Z,100.00
2023-02-18T16:48:56.591Z,100.00
2023-02-18T16:51:31.165Z,100.00
2023-02-18T16:54:00.135Z,100.00
2023-02-18T16:57:17.063Z,100.00
2023-02-18T16:59:46.046Z,100.00
2023-02-18T17:02:19.857Z,100.00
2023-02-18T17:04:48.544Z,100.00
2023-02-18T17:07:17.368Z,100.00
2023-02-18T17:09:46.407Z,100.00
2023-02-18T17:12:15.077Z,100.00
2023-02-18T17:14:43.878Z,100.00
2023-02-18T17:17:14.243Z,100.00
2023-02-18T17:19:44.160Z,100.00
2023-02-18T17:22:15.255Z,100.00
2023-02-18T17:24:44.221Z,100.00
2023-02-18T17:27:12.728Z,100.00
2023-02-18T17:29:41.394Z,100.00
2023-02-18T17:32:10.431Z,100.00
2023-02-18T17:34:41.420Z,100.00
2023-02-18T17:37:14.358Z,100.00
2023-02-18T17:39:43.087Z,100.00
2023-02-18T17:42:14.860Z,100.00
2023-02-18T17:44:44.343Z,100.00
2023-02-18T17:47:12.877Z,100.00
2023-02-18T17:49:41.436Z,100.00
2023-02-18T17:52:28.983Z,100.00
2023-02-18T17:54:57.734Z,100.00
2023-02-18T17:57:26.718Z,100.00
2023-02-18T17:59:58.214Z,100.00
2023-02-18T18:02:29.822Z,100.00
2023-02-18T18:04:58.391Z,100.00
2023-02-18T18:07:28.374Z,100.00
2023-02-18T18:09:56.876Z,100.00
2023-02-18T18:12:32.684Z,100.00
2023-02-18T18:15:02.958Z,100.00
2023-02-18T18:17:31.620Z,100.00
2023-02-18T18:20:00.409Z,100.00
2023-02-18T18:22:30.508Z,100.00
2023-02-18T18:24:59.071Z,100.00
2023-02-18T18:27:27.938Z,100.00
2023-02-18T18:29:56.592Z,100.00
2023-02-18T18:32:25.545Z,100.00
2023-02-18T18:34:54.088Z,100.00
2023-02-18T18:37:22.776Z,100.00
2023-02-18T18:39:52.758Z,100.00
2023-02-18T18:42:22.173Z,100.00
2023-02-18T18:44:51.047Z,100.00
2023-02-18T18:47:19.871Z,100.00
2023-02-18T18:49:48.556Z,100.00
2023-02-18T18:52:17.717Z,100.00
2023-02-18T18:54:46.486Z,100.00
2023-02-18T18:57:16.656Z,100.00
2023-02-18T18:59:45.443Z,100.00
2023-02-18T19:02:17.136Z,100.00
2023-02-18T19:04:45.515Z,100.00
2023-02-18T19:07:13.887Z,100.00
2023-02-18T19:09:42.437Z,100.00
2023-02-18T19:12:11.940Z,100.00
2023-02-18T19:14:41.874Z,100.00
2023-02-18T19:17:10.265Z,100.00
2023-02-18T19:19:38.754Z,100.00
2023-02-18T19:22:07.206Z,100.00
2023-02-18T19:24:35.767Z,100.00
2023-02-18T19:27:04.348Z,100.00
2023-02-18T19:29:32.859Z,100.00
2023-02-18T19:32:02.929Z,100.00
2023-02-18T19:34:31.823Z,100.00
2023-02-18T19:37:00.382Z,100.00
2023-02-18T19:39:28.767Z,100.00
2023-02-18T19:41:57.524Z,100.00
2023-02-18T19:44:26.878Z,100.00
2023-02-18T19:46:55.511Z,100.00
2023-02-18T19:49:28.775Z,100.00
2023-02-18T19:52:04.475Z,100.00
2023-02-18T19:54:33.735Z,100.00
2023-02-18T19:57:05.361Z,100.00
2023-02-18T19:59:34.452Z,100.00
2023-02-18T20:02:03.225Z,100.00
2023-02-18T20:04:34.018Z,100.00
2023-02-18T20:07:03.445Z,100.00
2023-02-18T20:09:32.075Z,100.00
2023-02-18T20:12:00.525Z,100.00
2023-02-18T20:14:29.589Z,100.00
2023-02-18T20:16:58.750Z,100.00
2023-02-18T20:19:31.787Z,100.00
2023-02-18T20:22:02.771Z,100.00
2023-02-18T20:24:32.665Z,100.00
2023-02-18T20:27:03.018Z,100.00
2023-02-18T20:29:33.715Z,100.00
2023-02-18T20:32:02.991Z,100.00
2023-02-18T20:34:33.040Z,100.00
2023-02-18T20:37:03.175Z,100.00
2023-02-18T20:39:31.801Z,100.00
2023-02-18T20:42:07.990Z,100.00
2023-02-18T20:44:39.844Z,100.00
2023-02-18T20:47:08.410Z,100.00
2023-02-18T20:49:37.161Z,100.00
2023-02-18T20:52:07.681Z,100.00
2023-02-18T20:54:36.261Z,100.00
2023-02-18T20:57:04.993Z,100.00
2023-02-18T20:59:34.309Z,100.00
2023-02-18T21:02:03.232Z,100.00
2023-02-18T21:04:32.498Z,100.00
2023-02-18T21:07:01.649Z,100.00
2023-02-18T21:09:31.625Z,100.00
2023-02-18T21:12:00.222Z,100.00
2023-02-18T21:14:28.729Z,100.00
2023-02-18T21:16:57.755Z,100.00
2023-02-18T21:19:26.360Z,100.00
2023-02-18T21:21:55.033Z,100.00
2023-02-18T21:24:23.705Z,100.00
2023-02-18T21:26:53.961Z,100.00
2023-02-18T21:29:23.046Z,100.00
2023-02-18T21:31:51.710Z,100.00
2023-02-18T21:34:21.254Z,100.00
2023-02-18T21:36:49.721Z,100.00
2023-02-18T21:39:18.911Z,100.00
2023-02-18T21:41:47.466Z,100.00
2023-02-18T21:44:17.582Z,100.00
2023-02-18T21:46:49.453Z,100.00
2023-02-18T21:49:19.574Z,100.00
2023-02-18T21:52:02.084Z,100.00
2023-02-18T21:54:33.828Z,100.00
2023-02-18T21:57:03.943Z,100.00
2023-02-18T21:59:35.197Z,100.00
2023-02-18T22:02:05.417Z,100.00
2023-02-18T22:04:35.855Z,100.00
2023-02-18T22:07:04.662Z,100.00
2023-02-18T22:09:33.407Z,100.00
2023-02-18T22:12:02.013Z,100.00
2023-02-18T22:14:30.982Z,100.00
2023-02-18T22:17:01.482Z,100.00
2023-02-18T22:19:30.086Z,100.00
2023-02-18T22:21:59.554Z,100.00
2023-02-18T22:24:28.800Z,100.00
2023-02-18T22:26:57.649Z,100.00
2023-02-18T22:29:26.365Z,100.00
2023-02-18T22:31:55.285Z,100.00
2023-02-18T22:34:25.476Z,100.00
2023-02-18T22:36:53.992Z,100.00
2023-02-18T22:39:22.807Z,100.00
2023-02-18T22:41:51.313Z,100.00
2023-02-18T22:44:20.428Z,100.00
2023-02-18T22:46:48.944Z,100.00
2023-02-18T22:49:18.024Z,100.00
2023-02-18T22:51:47.812Z,100.00
2023-02-18T22:54:18.797Z,100.00
2023-02-18T22:56:48.591Z,100.00
2023-02-18T22:59:20.779Z,100.00
2023-02-18T23:01:50.709Z,100.00
2023-02-18T23:04:20.529Z,100.00
2023-02-18T23:06:51.124Z,100.00
2023-02-18T23:09:21.886Z,100.00
2023-02-18T23:11:55.024Z,100.00
2023-02-18T23:14:24.013Z,100.00
2023-02-18T23:17:14.781Z,100.00
2023-02-18T23:19:45.696Z,100.00
2023-02-18T23:22:18.680Z,100.00
2023-02-18T23:24:49.764Z,100.00
2023-02-18T23:27:18.474Z,100.00
2023-02-18T23:29:46.903Z,100.00
2023-02-18T23:32:15.392Z,100.00
2023-02-18T23:34:44.071Z,100.00
2023-02-18T23:37:13.376Z,100.00
2023-02-18T23:39:45.227Z,100.00
2023-02-18T23:42:14.397Z,100.00
2023-02-18T23:44:42.915Z,100.00
2023-02-18T23:47:11.528Z,100.00
2023-02-18T23:49:40.117Z,100.00
2023-02-18T23:52:09.278Z,100.00
2023-02-18T23:54:37.780Z,100.00
2023-02-18T23:57:07.737Z,100.00
2023-02-18T23:59:36.203Z,100.00
